Time;durP1;ratioP1;P1;durP2;ratioP2;P2;SDS_P1;SDS_P2;PMS_P1;PMS_P2;Temp;Humidity;BMP_temperature;BMP_pressure;BME280_temperature;BME280_humidity;BME280_pressure;Samples;Min_cycle;Max_cycle;Signal;HPM_P1;HPM_P2
2021/10/02 00:41:11;;;;;;;7.97;3.13;;;13.80;99.90;;;;;;20563318;28;20075;-84
2021/10/02 00:51:14;;;;;;;6.38;2.92;;;13.70;99.90;;;;;;20533653;28;20043;-84
2021/10/02 01:01:20;;;;;;;7.85;3.38;;;13.70;99.90;;;;;;20551349;28;20054;-85
2021/10/02 01:11:29;;;;;;;15.85;4.10;;;13.60;99.90;;;;;;20558799;28;20053;-83
2021/10/02 01:22:08;;;;;;;8.52;3.78;;;13.60;99.90;;;;;;20568468;28;20056;-85
2021/10/02 01:32:42;;;;;;;8.82;3.47;;;13.50;99.90;;;;;;20568351;28;20139;-83
2021/10/02 01:53:00;;;;;;;13.00;3.30;;;13.60;99.90;;;;;;20563454;28;20051;-84
2021/10/02 02:03:04;;;;;;;7.18;3.05;;;13.50;99.90;;;;;;20650056;28;20062;-84
2021/10/02 02:13:07;;;;;;;11.15;3.75;;;13.50;99.90;;;;;;20539869;28;20137;-84
2021/10/02 02:23:11;;;;;;;11.30;3.42;;;13.40;99.90;;;;;;20559098;28;20108;-83
2021/10/02 02:33:15;;;;;;;6.35;3.03;;;13.40;99.90;;;;;;20547219;28;20098;-85
2021/10/02 02:43:17;;;;;;;6.53;2.95;;;13.50;99.90;;;;;;20523379;28;20486;-85
2021/10/02 02:53:33;;;;;;;9.57;3.85;;;13.40;99.90;;;;;;20551060;28;20446;-85
2021/10/02 03:03:37;;;;;;;8.38;3.25;;;13.20;99.90;;;;;;20532275;28;20050;-84
2021/10/02 03:13:40;;;;;;;8.48;2.92;;;13.00;99.90;;;;;;20550886;28;20769;-84
2021/10/02 03:23:48;;;;;;;10.32;4.03;;;13.00;99.90;;;;;;20491386;28;20054;-85
2021/10/02 03:33:50;;;;;;;10.20;5.13;;;13.00;99.90;;;;;;20567123;28;20419;-85
2021/10/02 03:43:51;;;;;;;9.98;4.10;;;13.00;99.90;;;;;;20581707;28;20481;-85
2021/10/02 03:53:52;;;;;;;9.95;5.35;;;12.90;99.90;;;;;;20514775;28;20046;-84
2021/10/02 04:03:53;;;;;;;8.23;3.72;;;12.80;99.90;;;;;;20516123;28;20051;-85
2021/10/02 04:13:55;;;;;;;12.07;4.15;;;12.70;99.90;;;;;;20550114;28;20064;-84
2021/10/02 04:23:56;;;;;;;8.88;3.92;;;12.60;99.90;;;;;;20564332;28;20051;-84
2021/10/02 04:33:57;;;;;;;13.00;3.78;;;12.60;99.90;;;;;;20555346;28;20047;-85
2021/10/02 04:43:58;;;;;;;8.30;3.97;;;12.60;99.90;;;;;;20560922;28;20146;-85
2021/10/02 04:53:59;;;;;;;11.25;4.22;;;12.60;99.90;;;;;;20535527;28;20049;-85
2021/10/02 05:04:01;;;;;;;15.82;5.53;;;12.60;99.90;;;;;;20551858;28;20059;-84
2021/10/02 05:14:02;;;;;;;14.07;4.13;;;12.60;99.90;;;;;;20515377;28;20050;-85
2021/10/02 05:24:04;;;;;;;14.80;5.03;;;12.50;99.90;;;;;;20537798;28;20074;-85
2021/10/02 05:34:05;;;;;;;16.33;6.32;;;12.60;99.90;;;;;;20554972;28;20046;-84
2021/10/02 05:44:07;;;;;;;15.50;5.32;;;12.50;99.90;;;;;;20537080;28;20066;-84
2021/10/02 05:54:09;;;;;;;17.23;5.95;;;12.60;99.90;;;;;;20526558;28;20050;-84
2021/10/02 06:04:10;;;;;;;16.42;6.03;;;12.60;99.90;;;;;;20571281;28;20071;-82
2021/10/02 06:14:12;;;;;;;17.17;7.60;;;12.60;99.90;;;;;;20539495;28;20059;-83
2021/10/02 06:24:14;;;;;;;16.10;6.82;;;12.50;99.90;;;;;;20547762;28;20076;-82
2021/10/02 06:34:16;;;;;;;20.80;6.95;;;12.70;99.90;;;;;;20585276;28;20367;-82
2021/10/02 06:44:17;;;;;;;27.92;7.68;;;12.70;99.90;;;;;;20576158;28;20055;-84
2021/10/02 06:54:18;;;;;;;16.35;6.35;;;12.70;99.90;;;;;;20546838;28;20051;-84
2021/10/02 07:04:19;;;;;;;23.98;7.00;;;12.70;99.90;;;;;;20553628;28;20059;-84
2021/10/02 07:14:35;;;;;;;16.20;5.65;;;12.70;99.90;;;;;;20590678;28;20076;-83
2021/10/02 07:24:39;;;;;;;11.48;4.60;;;12.70;99.90;;;;;;20561013;28;20062;-83
2021/10/02 07:34:59;;;;;;;16.45;6.25;;;12.70;99.90;;;;;;20573646;28;20150;-84
2021/10/02 07:45:11;;;;;;;9.52;3.97;;;12.90;99.90;;;;;;20590546;28;20045;-85
2021/10/02 07:55:16;;;;;;;12.45;4.72;;;13.00;99.90;;;;;;20509978;28;20700;-86
2021/10/02 08:05:18;;;;;;;15.45;4.55;;;13.10;99.90;;;;;;20501264;28;20050;-83
2021/10/02 08:15:20;;;;;;;15.18;5.18;;;13.30;99.90;;;;;;20547887;28;20050;-84
2021/10/02 08:25:25;;;;;;;8.68;3.75;;;13.40;99.90;;;;;;20543891;28;20047;-83
2021/10/02 08:35:26;;;;;;;10.05;3.28;;;13.40;99.90;;;;;;20556160;28;20035;-84
2021/10/02 08:45:30;;;;;;;7.75;2.65;;;13.60;99.90;;;;;;20534669;28;20058;-82
2021/10/02 08:55:31;;;;;;;5.72;2.35;;;13.70;99.90;;;;;;20523923;28;20052;-83
2021/10/02 09:05:32;;;;;;;6.35;1.95;;;13.90;99.90;;;;;;20521519;28;20623;-82
2021/10/02 09:15:34;;;;;;;4.93;1.73;;;14.20;99.90;;;;;;20510947;28;20612;-82
2021/10/02 09:25:36;;;;;;;8.23;2.00;;;14.20;99.90;;;;;;20528769;28;20055;-82
2021/10/02 09:35:39;;;;;;;7.18;2.92;;;14.30;99.90;;;;;;20532780;28;20034;-83
2021/10/02 09:45:41;;;;;;;8.15;3.78;;;14.30;99.90;;;;;;20499495;28;20043;-82
2021/10/02 09:55:51;;;;;;;34.72;3.28;;;14.60;99.90;;;;;;20534438;28;20039;-82
2021/10/02 10:05:53;;;;;;;7.82;3.00;;;14.70;99.90;;;;;;20499047;28;20046;-83
2021/10/02 10:15:55;;;;;;;9.05;3.17;;;14.70;99.90;;;;;;20565198;28;20411;-88
2021/10/02 10:26:03;;;;;;;7.15;2.08;;;14.70;99.90;;;;;;20511706;28;20039;-83
2021/10/02 10:36:04;;;;;;;8.05;3.17;;;14.80;99.90;;;;;;20387784;28;20046;-83
2021/10/02 10:46:09;;;;;;;7.15;2.92;;;14.70;99.90;;;;;;20524322;28;20494;-84
2021/10/02 10:56:12;;;;;;;6.32;2.60;;;14.70;99.90;;;;;;20513646;28;20062;-83
2021/10/02 11:06:17;;;;;;;6.90;2.80;;;14.60;99.90;;;;;;20499341;28;20047;-86
2021/10/02 11:16:30;;;;;;;6.20;2.60;;;14.80;99.90;;;;;;20395044;28;20036;-82
2021/10/02 11:26:46;;;;;;;9.38;3.28;;;15.00;99.90;;;;;;20506572;28;20162;-83
2021/10/02 11:36:55;;;;;;;7.43;3.28;;;15.20;99.90;;;;;;20534304;28;20051;-83
2021/10/02 11:47:26;;;;;;;5.22;2.20;;;15.50;99.90;;;;;;20524402;28;20045;-86
2021/10/02 11:57:27;;;;;;;4.75;2.22;;;15.60;99.90;;;;;;20499852;28;20055;-83
2021/10/02 12:07:30;;;;;;;4.95;1.42;;;15.50;99.90;;;;;;20489681;28;20044;-84
2021/10/02 12:17:31;;;;;;;6.10;1.67;;;16.00;99.90;;;;;;20504161;28;20043;-84
2021/10/02 12:27:32;;;;;;;3.08;0.93;;;16.20;99.90;;;;;;20479322;28;20051;-83
2021/10/02 12:37:34;;;;;;;1.60;1.00;;;16.50;99.90;;;;;;20519429;28;20057;-81
2021/10/02 12:47:36;;;;;;;2.35;0.90;;;16.30;99.90;;;;;;20484975;28;20028;-82
2021/10/02 12:57:39;;;;;;;3.20;0.80;;;16.30;99.90;;;;;;20450668;28;20048;-82
2021/10/02 13:07:51;;;;;;;1.58;0.90;;;16.40;99.90;;;;;;20430563;28;20039;-81
2021/10/02 13:18:03;;;;;;;1.92;0.77;;;16.10;99.90;;;;;;20425860;28;20081;-83
2021/10/02 13:28:04;;;;;;;2.03;0.88;;;15.80;99.90;;;;;;20457815;28;20455;-81
2021/10/02 13:38:08;;;;;;;2.47;0.90;;;15.80;99.90;;;;;;20462635;28;20689;-81
2021/10/02 13:48:12;;;;;;;4.57;1.25;;;15.80;99.90;;;;;;20505683;28;20048;-83
2021/10/02 13:58:14;;;;;;;1.52;0.60;;;15.70;99.90;;;;;;20503981;28;20054;-83
2021/10/02 14:08:15;;;;;;;1.95;0.57;;;15.70;99.90;;;;;;20468592;28;20403;-84
2021/10/02 14:18:16;;;;;;;2.40;1.08;;;15.60;99.90;;;;;;20474469;28;20047;-84
2021/10/02 14:28:18;;;;;;;3.33;0.80;;;15.60;99.90;;;;;;20471596;28;20042;-84
2021/10/02 14:38:19;;;;;;;2.03;0.70;;;15.40;99.90;;;;;;20482853;28;20042;-83
2021/10/02 14:48:22;;;;;;;1.90;0.90;;;15.40;99.90;;;;;;20497498;28;20043;-82
2021/10/02 14:58:25;;;;;;;4.15;1.10;;;15.40;99.90;;;;;;20516186;28;20040;-81
2021/10/02 15:08:28;;;;;;;2.28;0.90;;;15.30;99.90;;;;;;20421773;28;20042;-82
2021/10/02 15:18:34;;;;;;;4.57;1.73;;;15.30;99.90;;;;;;20447359;28;20040;-82
2021/10/02 15:28:40;;;;;;;3.72;1.67;;;15.30;99.90;;;;;;20520309;28;20031;-83
2021/10/02 15:38:42;;;;;;;1.63;0.80;;;15.20;99.90;;;;;;20455082;28;20047;-83
2021/10/02 15:48:44;;;;;;;1.13;0.55;;;15.20;99.90;;;;;;20393907;28;20036;-82
2021/10/02 15:58:51;;;;;;;2.88;0.63;;;15.30;99.90;;;;;;20381875;28;20059;-83
2021/10/02 16:08:58;;;;;;;1.60;0.63;;;15.40;99.90;;;;;;20429917;28;20043;-83
2021/10/02 16:18:59;;;;;;;1.90;0.82;;;15.30;99.90;;;;;;20412877;28;20050;-83
2021/10/02 16:29:02;;;;;;;2.60;0.57;;;15.40;99.90;;;;;;20437939;28;20052;-84
2021/10/02 16:39:06;;;;;;;3.40;0.50;;;15.20;99.90;;;;;;20499289;28;22396;-82
2021/10/02 16:49:07;;;;;;;0.98;0.38;;;15.20;99.90;;;;;;20470688;28;20874;-83
2021/10/02 16:59:08;;;;;;;1.40;0.60;;;15.00;99.90;;;;;;20486038;28;20050;-83
2021/10/02 17:09:09;;;;;;;2.70;0.60;;;14.80;99.90;;;;;;20553866;28;20392;-82
2021/10/02 17:19:11;;;;;;;1.75;0.65;;;14.60;99.90;;;;;;20566130;28;20034;-82
2021/10/02 17:29:12;;;;;;;1.52;0.65;;;14.40;99.90;;;;;;20520461;28;20038;-82
2021/10/02 17:39:13;;;;;;;2.78;0.95;;;14.20;99.90;;;;;;20456167;28;20050;-83
2021/10/02 17:49:18;;;;;;;1.67;0.68;;;14.10;99.90;;;;;;20462971;28;20478;-82
2021/10/02 17:59:19;;;;;;;3.70;1.20;;;13.90;99.90;;;;;;20559087;28;20533;-84
2021/10/02 18:09:21;;;;;;;1.60;0.75;;;13.70;99.90;;;;;;20488795;28;20035;-83
2021/10/02 18:19:22;;;;;;;2.25;1.08;;;13.60;99.90;;;;;;20452750;28;20476;-83
2021/10/02 18:29:24;;;;;;;2.90;0.95;;;13.60;99.90;;;;;;20476734;28;20059;-81
2021/10/02 18:39:25;;;;;;;2.17;1.35;;;13.50;99.90;;;;;;20498250;28;20054;-82
2021/10/02 18:49:26;;;;;;;4.78;1.10;;;13.70;99.90;;;;;;20536628;28;20069;-83
2021/10/02 18:59:27;;;;;;;2.05;0.85;;;13.90;99.90;;;;;;20536637;28;20064;-82
2021/10/02 19:09:28;;;;;;;2.90;1.00;;;13.90;99.90;;;;;;20471845;28;20038;-82
2021/10/02 19:19:31;;;;;;;4.95;1.50;;;14.00;99.90;;;;;;20433636;28;20054;-82
2021/10/02 19:29:36;;;;;;;4.63;1.23;;;14.10;99.90;;;;;;20515481;28;20042;-81
2021/10/02 19:39:38;;;;;;;2.38;0.88;;;14.20;99.90;;;;;;20470506;28;20061;-82
2021/10/02 19:49:41;;;;;;;2.28;0.77;;;14.30;99.90;;;;;;20496915;28;20031;-82
2021/10/02 19:59:44;;;;;;;3.95;0.90;;;14.50;99.90;;;;;;20523470;28;20053;-85
2021/10/02 20:09:45;;;;;;;1.80;0.70;;;14.60;99.90;;;;;;20502616;28;20047;-82
2021/10/02 20:19:46;;;;;;;1.90;0.75;;;14.80;99.90;;;;;;20493058;28;20371;-81
2021/10/02 20:29:47;;;;;;;2.05;0.95;;;14.80;99.90;;;;;;20505068;28;20138;-82
2021/10/02 20:39:49;;;;;;;1.88;1.02;;;14.90;99.90;;;;;;20447805;28;20066;-83
2021/10/02 20:49:50;;;;;;;3.25;0.88;;;14.90;99.90;;;;;;20508821;28;20406;-83
2021/10/02 20:59:51;;;;;;;1.45;0.60;;;15.10;99.90;;;;;;20516244;28;20051;-83
2021/10/02 21:09:53;;;;;;;1.75;0.60;;;15.00;99.90;;;;;;20490789;28;20043;-83
2021/10/02 21:19:54;;;;;;;1.52;0.60;;;15.10;99.90;;;;;;20496204;28;20058;-83
2021/10/02 21:29:56;;;;;;;2.15;0.75;;;15.20;99.90;;;;;;20397781;28;20040;-82
2021/10/02 21:39:58;;;;;;;2.80;0.63;;;15.30;99.90;;;;;;20510883;28;20046;-81
2021/10/02 21:49:59;;;;;;;0.98;0.45;;;15.40;99.90;;;;;;20536567;28;20043;-81
2021/10/02 22:00:06;;;;;;;1.00;0.30;;;15.50;99.90;;;;;;20449095;28;20046;-82
2021/10/02 22:10:08;;;;;;;1.20;0.40;;;15.60;99.90;;;;;;20483454;28;20063;-82
2021/10/02 22:20:13;;;;;;;2.05;0.28;;;15.80;99.90;;;;;;20499875;28;20795;-82
2021/10/02 22:30:15;;;;;;;0.95;0.30;;;15.90;99.90;;;;;;20482783;28;20039;-82
2021/10/02 22:40:16;;;;;;;0.63;0.30;;;16.10;99.90;;;;;;20496756;28;20050;-82
2021/10/02 22:50:21;;;;;;;0.98;0.28;;;16.10;99.90;;;;;;20514498;28;20090;-81
2021/10/02 23:00:22;;;;;;;0.40;0.20;;;16.30;99.90;;;;;;20542388;28;20054;-81
2021/10/02 23:10:24;;;;;;;1.10;0.40;;;16.30;99.90;;;;;;20511723;28;20036;-82
2021/10/02 23:20:28;;;;;;;0.60;0.30;;;16.40;99.90;;;;;;20487020;28;20741;-82
2021/10/02 23:30:31;;;;;;;0.60;0.28;;;16.30;99.90;;;;;;20507081;28;20042;-82
2021/10/02 23:40:34;;;;;;;1.20;0.43;;;16.20;99.90;;;;;;20445235;28;20043;-82
2021/10/02 23:50:39;;;;;;;2.65;0.30;;;16.20;99.90;;;;;;20455263;28;20452;-80
